Time;durP1;ratioP1;P1;durP2;ratioP2;P2;SDS_P1;SDS_P2;PMS_P1;PMS_P2;Temp;Humidity;BMP_temperature;BMP_pressure;BME280_temperature;BME280_humidity;BME280_pressure;Samples;Min_cycle;Max_cycle;Signal;HPM_P1;HPM_P2
2022/06/24 00:02:20;;;;;;;0.20;0.20;;;22.70;85.50;;;;;;4305732;33;20104;-68
2022/06/24 00:04:55;;;;;;;0.50;0.50;;;22.70;85.90;;;;;;4307475;33;20517;-68
2022/06/24 00:07:21;;;;;;;2.10;0.73;;;22.60;85.90;;;;;;4307404;33;20524;-68
2022/06/24 00:09:47;;;;;;;2.50;0.35;;;22.60;86.00;;;;;;4309431;33;20392;-68
2022/06/24 00:12:15;;;;;;;0.30;0.30;;;22.50;86.30;;;;;;4306190;33;20100;-68
2022/06/24 00:14:45;;;;;;;0.20;0.20;;;22.50;86.40;;;;;;4307699;33;20073;-68
2022/06/24 00:17:12;;;;;;;0.20;0.20;;;22.40;87.00;;;;;;4305052;33;20458;-68
2022/06/24 00:19:59;;;;;;;0.20;0.20;;;22.40;86.80;;;;;;4305215;33;20657;-68
2022/06/24 00:22:26;;;;;;;0.28;0.28;;;22.40;87.10;;;;;;4284308;33;20080;-68
2022/06/24 00:25:13;;;;;;;0.50;0.47;;;22.40;87.30;;;;;;4287782;33;20139;-68
2022/06/24 00:27:40;;;;;;;0.30;0.30;;;22.40;87.10;;;;;;4305550;33;20492;-68
2022/06/24 00:30:10;;;;;;;0.20;0.20;;;22.30;87.50;;;;;;4308401;33;20076;-68
2022/06/24 00:32:36;;;;;;;0.20;0.20;;;22.30;87.70;;;;;;4307446;33;20064;-68
2022/06/24 00:35:05;;;;;;;0.20;0.20;;;22.40;87.70;;;;;;4308721;33;20496;-68
2022/06/24 00:37:32;;;;;;;0.35;0.35;;;22.30;88.00;;;;;;4306487;33;20072;-68
2022/06/24 00:40:20;;;;;;;0.30;0.30;;;22.20;88.80;;;;;;4307953;33;20072;-68
2022/06/24 00:42:47;;;;;;;0.25;0.25;;;22.10;89.20;;;;;;4305812;33;20068;-68
2022/06/24 00:45:21;;;;;;;0.35;0.35;;;22.00;89.30;;;;;;4304653;33;20076;-68
2022/06/24 00:47:48;;;;;;;0.20;0.20;;;22.10;89.60;;;;;;4304938;33;20083;-69
2022/06/24 00:50:25;;;;;;;0.40;0.40;;;22.10;89.70;;;;;;4306984;33;20556;-68
2022/06/24 00:52:56;;;;;;;0.30;0.30;;;22.00;89.70;;;;;;4279953;33;20085;-68
2022/06/24 00:55:28;;;;;;;1.35;0.47;;;21.90;90.00;;;;;;4291144;33;20080;-69
2022/06/24 00:57:54;;;;;;;0.30;0.30;;;21.90;90.10;;;;;;4303980;33;20110;-68
2022/06/24 01:00:21;;;;;;;0.30;0.30;;;21.90;90.10;;;;;;4308136;33;20483;-68
2022/06/24 01:02:49;;;;;;;0.50;0.50;;;22.00;90.30;;;;;;4304759;33;20459;-68
2022/06/24 01:05:17;;;;;;;0.32;0.32;;;21.90;90.10;;;;;;4306546;33;20080;-68
2022/06/24 01:07:42;;;;;;;0.62;0.52;;;21.90;90.00;;;;;;4306355;33;20100;-68
2022/06/24 01:10:09;;;;;;;0.43;0.40;;;21.90;90.10;;;;;;4305984;33;20549;-68
2022/06/24 01:12:36;;;;;;;0.50;0.50;;;21.80;90.30;;;;;;4308058;33;20509;-68
2022/06/24 01:15:04;;;;;;;0.30;0.30;;;21.80;90.40;;;;;;4306851;33;20840;-68
2022/06/24 01:17:30;;;;;;;0.22;0.22;;;21.70;90.30;;;;;;4306561;33;20529;-68
2022/06/24 01:19:55;;;;;;;0.37;0.37;;;21.70;90.30;;;;;;4306143;33;20525;-68
2022/06/24 01:22:21;;;;;;;0.25;0.25;;;21.70;90.20;;;;;;4283568;33;20073;-68
2022/06/24 01:24:47;;;;;;;0.30;0.30;;;21.70;90.20;;;;;;4286588;33;20092;-68
2022/06/24 01:27:13;;;;;;;0.30;0.30;;;21.70;90.20;;;;;;4303600;33;20411;-68
2022/06/24 01:29:38;;;;;;;1.98;0.50;;;21.50;90.70;;;;;;4305602;33;20124;-68
2022/06/24 01:32:04;;;;;;;0.20;0.20;;;21.60;90.70;;;;;;4302421;33;89802;-68
2022/06/24 01:34:30;;;;;;;0.40;0.40;;;21.60;90.60;;;;;;4304010;33;20084;-68
2022/06/24 01:36:55;;;;;;;0.30;0.30;;;21.60;90.40;;;;;;4305353;33;20150;-68
2022/06/24 01:39:21;;;;;;;0.47;0.47;;;21.60;90.50;;;;;;4306197;33;20087;-68
2022/06/24 01:41:47;;;;;;;0.43;0.43;;;21.60;90.40;;;;;;4306285;33;20048;-68
2022/06/24 01:44:13;;;;;;;0.32;0.32;;;21.50;90.30;;;;;;4305854;33;20146;-68
2022/06/24 01:46:38;;;;;;;1.50;0.82;;;21.50;90.20;;;;;;4305942;33;20064;-68
2022/06/24 01:49:04;;;;;;;0.40;0.40;;;21.50;90.20;;;;;;4303163;33;20586;-68
2022/06/24 01:51:31;;;;;;;0.70;0.70;;;21.40;90.30;;;;;;4295376;33;20064;-68
2022/06/24 01:53:57;;;;;;;0.40;0.40;;;21.40;90.50;;;;;;4283137;33;20469;-68
2022/06/24 01:56:22;;;;;;;1.37;0.70;;;21.40;90.60;;;;;;4301492;33;20104;-68
2022/06/24 01:58:48;;;;;;;0.37;0.37;;;21.40;90.50;;;;;;4304375;33;20064;-68
2022/06/24 02:01:14;;;;;;;0.55;0.43;;;21.30;90.30;;;;;;4304730;33;20214;-68
2022/06/24 02:03:40;;;;;;;0.55;0.50;;;21.40;90.60;;;;;;4306872;33;20089;-68
2022/06/24 02:06:09;;;;;;;0.50;0.50;;;21.20;91.00;;;;;;4307621;33;20076;-68
2022/06/24 02:08:34;;;;;;;0.30;0.30;;;21.20;90.60;;;;;;4304967;33;20088;-68
2022/06/24 02:13:32;;;;;;;0.30;0.30;;;21.20;90.80;;;;;;4306492;33;20084;-68
2022/06/24 02:13:47;;;;;;;0.43;0.43;;;21.20;90.70;;;;;;4305195;33;20470;-68
2022/06/24 02:16:13;;;;;;;0.45;0.45;;;21.20;90.80;;;;;;4305406;33;20097;-68
2022/06/24 02:18:39;;;;;;;0.50;0.50;;;21.10;90.90;;;;;;4303494;33;20059;-68
2022/06/24 02:21:05;;;;;;;0.40;0.40;;;21.10;91.10;;;;;;4299173;33;20056;-68
2022/06/24 02:23:31;;;;;;;0.60;0.60;;;21.00;91.30;;;;;;4281631;33;20088;-68
2022/06/24 02:25:56;;;;;;;0.85;0.50;;;21.00;91.10;;;;;;4299600;33;20085;-68
2022/06/24 02:28:22;;;;;;;1.85;0.68;;;20.90;91.30;;;;;;4302921;33;20158;-68
2022/06/24 02:30:51;;;;;;;0.40;0.40;;;20.90;91.80;;;;;;4305083;33;21560;-68
2022/06/24 02:33:16;;;;;;;0.60;0.60;;;20.80;91.60;;;;;;4303395;33;20072;-68
2022/06/24 02:35:41;;;;;;;0.40;0.40;;;20.90;91.80;;;;;;4305064;33;20061;-68
2022/06/24 02:38:07;;;;;;;0.40;0.40;;;20.70;91.90;;;;;;4305116;33;20080;-68
2022/06/24 02:40:49;;;;;;;0.30;0.30;;;20.70;91.90;;;;;;4304134;33;20127;-68
2022/06/24 02:43:25;;;;;;;0.50;0.47;;;20.80;92.10;;;;;;4307910;33;20734;-68
2022/06/24 02:45:53;;;;;;;0.40;0.40;;;20.80;91.90;;;;;;4307952;33;20513;-68
2022/06/24 02:48:20;;;;;;;0.45;0.45;;;20.80;92.00;;;;;;4306256;33;20083;-68
2022/06/24 02:50:48;;;;;;;0.40;0.40;;;20.70;92.00;;;;;;4303541;33;20064;-68
2022/06/24 02:53:16;;;;;;;0.30;0.30;;;20.70;92.20;;;;;;4285094;33;20497;-68
2022/06/24 02:55:42;;;;;;;0.50;0.50;;;20.70;92.10;;;;;;4298724;33;20072;-68
2022/06/24 02:58:08;;;;;;;0.37;0.37;;;20.70;92.20;;;;;;4307141;33;20099;-68
2022/06/24 03:00:34;;;;;;;0.75;0.75;;;20.70;92.20;;;;;;4308341;33;20127;-68
2022/06/24 03:03:00;;;;;;;0.45;0.45;;;20.60;92.40;;;;;;4308422;33;20085;-68
2022/06/24 03:05:26;;;;;;;0.50;0.50;;;20.60;92.40;;;;;;4309364;33;20072;-68
2022/06/24 03:07:53;;;;;;;0.62;0.43;;;20.70;92.40;;;;;;4308424;33;20113;-68
2022/06/24 03:10:19;;;;;;;0.50;0.50;;;20.80;92.20;;;;;;4310143;33;20084;-68
2022/06/24 03:12:44;;;;;;;0.62;0.62;;;20.70;92.30;;;;;;4307612;33;20399;-68
2022/06/24 03:15:10;;;;;;;1.75;0.50;;;20.70;92.60;;;;;;4308716;33;20142;-68
2022/06/24 03:17:36;;;;;;;2.42;0.95;;;20.80;92.60;;;;;;4309631;33;20095;-68
2022/06/24 03:20:02;;;;;;;0.70;0.70;;;20.70;92.40;;;;;;4308953;33;20065;-68
2022/06/24 03:22:28;;;;;;;4.22;1.05;;;20.70;92.70;;;;;;4286242;33;20684;-68
2022/06/24 03:24:53;;;;;;;1.20;0.80;;;20.70;92.70;;;;;;4287229;33;20107;-68
2022/06/24 03:27:19;;;;;;;2.70;1.08;;;20.70;92.90;;;;;;4306717;33;20500;-68
2022/06/24 03:29:44;;;;;;;0.98;0.88;;;20.60;92.70;;;;;;4308422;33;20072;-68
2022/06/24 03:32:10;;;;;;;0.40;0.40;;;20.60;92.90;;;;;;4306654;33;20072;-68
2022/06/24 03:34:35;;;;;;;0.45;0.45;;;20.60;93.20;;;;;;4307947;33;20694;-68
2022/06/24 03:37:01;;;;;;;0.40;0.40;;;20.60;93.20;;;;;;4309113;33;20104;-68
2022/06/24 03:39:26;;;;;;;2.80;1.45;;;20.60;93.20;;;;;;4308341;33;20112;-68
2022/06/24 03:41:52;;;;;;;0.50;0.50;;;20.60;93.30;;;;;;4306077;33;20113;-68
2022/06/24 03:44:17;;;;;;;0.40;0.40;;;20.50;93.20;;;;;;4308905;33;20080;-68
2022/06/24 03:46:43;;;;;;;0.50;0.50;;;20.60;93.10;;;;;;4307055;33;20450;-68
2022/06/24 03:49:08;;;;;;;0.70;0.60;;;20.60;93.20;;;;;;4308340;33;20084;-68
2022/06/24 03:51:35;;;;;;;1.67;1.15;;;20.70;93.10;;;;;;4297107;33;20532;-68
2022/06/24 03:54:00;;;;;;;0.75;0.75;;;20.70;93.10;;;;;;4282772;33;20219;-68
2022/06/24 03:56:26;;;;;;;0.40;0.40;;;20.60;93.10;;;;;;4305606;33;20076;-68
2022/06/24 03:58:51;;;;;;;1.95;1.10;;;20.70;93.10;;;;;;4306671;33;20072;-68
2022/06/24 04:01:17;;;;;;;0.40;0.40;;;20.80;93.00;;;;;;4307184;33;20615;-68
2022/06/24 04:03:42;;;;;;;0.95;0.85;;;20.70;93.20;;;;;;4307712;33;20076;-68
2022/06/24 04:06:08;;;;;;;0.60;0.60;;;20.80;93.10;;;;;;4309920;33;20064;-68
2022/06/24 04:08:34;;;;;;;0.30;0.30;;;20.80;93.40;;;;;;4309814;33;20093;-68
2022/06/24 04:11:09;;;;;;;0.50;0.50;;;20.90;93.20;;;;;;4305262;33;20513;-68
2022/06/24 04:13:35;;;;;;;1.08;0.60;;;20.90;92.90;;;;;;4301944;33;20526;-68
2022/06/24 04:16:00;;;;;;;0.57;0.57;;;21.00;92.70;;;;;;4307827;33;20083;-68
2022/06/24 04:18:25;;;;;;;0.73;0.73;;;21.10;92.60;;;;;;4305930;33;20111;-68
2022/06/24 04:20:51;;;;;;;0.30;0.30;;;21.10;92.60;;;;;;4301106;33;20564;-68
2022/06/24 04:23:16;;;;;;;0.62;0.60;;;21.10;92.80;;;;;;4247285;33;20105;-68
2022/06/24 04:25:42;;;;;;;0.73;0.50;;;21.10;92.60;;;;;;4259779;33;20103;-68
2022/06/24 04:28:08;;;;;;;0.37;0.37;;;21.20;92.40;;;;;;4263896;33;20088;-68
2022/06/24 04:30:33;;;;;;;0.65;0.55;;;21.20;92.30;;;;;;4266066;33;20084;-68
2022/06/24 04:32:59;;;;;;;0.30;0.30;;;21.20;93.00;;;;;;4263792;33;20158;-68
2022/06/24 04:35:24;;;;;;;2.70;0.85;;;21.20;92.30;;;;;;4288858;33;20072;-68
2022/06/24 04:37:50;;;;;;;0.40;0.40;;;21.30;92.20;;;;;;4307999;33;20116;-68
2022/06/24 04:40:15;;;;;;;0.30;0.30;;;21.30;92.40;;;;;;4307167;33;20085;-68
2022/06/24 04:42:41;;;;;;;0.55;0.45;;;21.40;92.70;;;;;;4307880;33;20103;-68
2022/06/24 04:45:07;;;;;;;0.82;0.70;;;21.50;92.00;;;;;;4305841;33;20072;-68
2022/06/24 04:47:32;;;;;;;1.80;0.70;;;21.60;91.90;;;;;;4304951;33;20072;-68
2022/06/24 04:49:58;;;;;;;0.45;0.45;;;21.60;91.60;;;;;;4306517;33;20097;-68
2022/06/24 04:52:24;;;;;;;0.52;0.52;;;21.70;91.80;;;;;;4271716;33;20770;-68
2022/06/24 04:54:50;;;;;;;0.32;0.32;;;21.80;91.60;;;;;;4246880;33;20075;-69
2022/06/24 04:57:16;;;;;;;0.85;0.77;;;21.80;91.50;;;;;;4291902;33;20595;-68
2022/06/24 04:59:41;;;;;;;12.07;1.85;;;21.90;91.50;;;;;;4305347;33;20100;-68
2022/06/24 05:02:07;;;;;;;0.40;0.40;;;22.00;91.50;;;;;;4292389;33;20092;-69
2022/06/24 05:04:33;;;;;;;1.65;1.00;;;22.00;92.10;;;;;;4274532;33;20526;-68
2022/06/24 05:06:58;;;;;;;1.27;0.40;;;22.00;91.00;;;;;;4269747;33;20542;-69
2022/06/24 05:09:24;;;;;;;0.30;0.30;;;22.10;90.90;;;;;;4262433;33;20197;-69
2022/06/24 05:11:51;;;;;;;1.00;0.52;;;22.10;90.90;;;;;;4261796;33;20937;-68
2022/06/24 05:14:17;;;;;;;0.60;0.60;;;22.10;90.60;;;;;;4260361;33;20559;-69
2022/06/24 05:16:43;;;;;;;0.40;0.40;;;22.20;90.40;;;;;;4267622;33;20083;-69
2022/06/24 05:19:09;;;;;;;0.65;0.60;;;22.30;90.40;;;;;;4222983;33;20198;-69
2022/06/24 05:21:34;;;;;;;0.75;0.75;;;22.40;90.20;;;;;;4216157;33;20806;-68
2022/06/24 05:24:00;;;;;;;0.77;0.73;;;22.50;90.40;;;;;;4182635;33;20096;-68
2022/06/24 05:26:26;;;;;;;0.88;0.73;;;22.50;90.20;;;;;;4201270;33;21080;-69
2022/06/24 05:28:53;;;;;;;0.37;0.37;;;22.60;89.80;;;;;;4211344;33;20414;-68
2022/06/24 05:31:19;;;;;;;0.60;0.60;;;22.60;89.40;;;;;;4205358;33;20844;-69
2022/06/24 05:33:45;;;;;;;0.35;0.35;;;22.70;89.60;;;;;;4224774;33;20494;-69
2022/06/24 05:36:11;;;;;;;0.75;0.75;;;22.70;90.00;;;;;;4231066;33;20546;-68
2022/06/24 05:38:36;;;;;;;0.30;0.30;;;22.80;89.50;;;;;;4218851;33;20078;-69
2022/06/24 05:41:03;;;;;;;0.40;0.40;;;22.90;89.10;;;;;;4243140;33;20394;-69
2022/06/24 05:43:30;;;;;;;1.40;0.77;;;22.90;89.40;;;;;;4245957;33;20668;-69
2022/06/24 05:45:55;;;;;;;0.70;0.70;;;23.00;88.80;;;;;;4265723;33;20240;-69
2022/06/24 05:48:21;;;;;;;0.60;0.50;;;23.00;88.50;;;;;;4266579;33;20080;-69
2022/06/24 05:50:47;;;;;;;2.05;0.40;;;23.10;88.80;;;;;;4260524;33;20360;-69
2022/06/24 05:55:14;;;;;;;0.40;0.40;;;23.10;88.50;;;;;;4260751;33;21138;-69
2022/06/24 05:56:00;;;;;;;0.30;0.30;;;23.20;87.90;;;;;;4278248;33;20336;-69
2022/06/24 05:58:28;;;;;;;0.52;0.40;;;23.30;88.40;;;;;;4287513;33;20490;-69
2022/06/24 06:00:55;;;;;;;0.43;0.43;;;23.30;87.80;;;;;;4275233;33;21026;-69
2022/06/24 06:03:22;;;;;;;0.80;0.65;;;23.40;87.00;;;;;;4256829;33;20325;-69
2022/06/24 06:05:48;;;;;;;0.35;0.35;;;23.50;87.30;;;;;;4258888;33;20293;-69
2022/06/24 06:08:14;;;;;;;0.50;0.50;;;23.50;87.30;;;;;;4276864;33;20080;-68
2022/06/24 06:10:40;;;;;;;0.50;0.50;;;23.60;86.80;;;;;;4290577;33;20069;-69
2022/06/24 06:13:06;;;;;;;0.40;0.40;;;23.70;86.60;;;;;;4288264;33;20092;-69
2022/06/24 06:15:32;;;;;;;0.62;0.62;;;23.80;86.30;;;;;;4293283;33;20065;-68
2022/06/24 06:18:01;;;;;;;0.43;0.43;;;23.80;86.30;;;;;;4283984;33;20490;-69
2022/06/24 06:20:26;;;;;;;0.30;0.30;;;23.90;84.60;;;;;;4265230;33;20248;-69
2022/06/24 06:22:52;;;;;;;0.43;0.43;;;23.90;85.00;;;;;;4267528;33;20390;-69
2022/06/24 06:25:17;;;;;;;0.40;0.40;;;24.00;85.50;;;;;;4282756;33;20506;-69
2022/06/24 06:27:44;;;;;;;1.25;1.00;;;24.00;84.90;;;;;;4292432;33;20084;-69
2022/06/24 06:30:10;;;;;;;0.30;0.30;;;24.10;84.20;;;;;;4271760;33;20572;-69
2022/06/24 06:32:36;;;;;;;0.82;0.80;;;24.20;84.30;;;;;;4259485;33;20551;-69
2022/06/24 06:35:03;;;;;;;0.60;0.60;;;24.30;83.70;;;;;;4251662;33;20080;-69
2022/06/24 06:37:28;;;;;;;1.05;0.70;;;24.40;82.90;;;;;;4260753;33;20101;-69
2022/06/24 06:39:54;;;;;;;0.43;0.43;;;24.50;83.20;;;;;;4289650;33;20088;-68
2022/06/24 06:42:19;;;;;;;0.30;0.30;;;24.50;84.00;;;;;;4282733;33;20149;-69
2022/06/24 06:44:45;;;;;;;12.95;0.70;;;24.60;83.10;;;;;;4288854;33;20108;-68
2022/06/24 06:47:10;;;;;;;0.85;0.73;;;24.70;81.70;;;;;;4282812;33;20088;-69
2022/06/24 06:49:36;;;;;;;0.35;0.35;;;24.70;81.60;;;;;;4256607;33;20145;-68
2022/06/24 06:52:02;;;;;;;0.40;0.40;;;24.70;81.70;;;;;;4257781;33;20698;-69
2022/06/24 06:54:29;;;;;;;7.32;2.87;;;24.80;81.50;;;;;;4269664;33;20583;-69
2022/06/24 06:56:55;;;;;;;1.08;1.00;;;24.90;81.60;;;;;;4274731;33;20141;-69
2022/06/24 06:59:21;;;;;;;0.62;0.62;;;25.10;81.90;;;;;;4265863;33;20089;-69
2022/06/24 07:01:46;;;;;;;0.35;0.35;;;25.10;80.90;;;;;;4262283;33;20099;-68
2022/06/24 07:04:12;;;;;;;10.23;0.82;;;25.20;80.50;;;;;;4251438;33;20329;-68
2022/06/24 07:06:37;;;;;;;2.15;1.45;;;25.30;79.50;;;;;;4262887;33;20613;-68
2022/06/24 07:09:03;;;;;;;0.40;0.40;;;25.40;78.50;;;;;;4276534;33;20100;-68
2022/06/24 07:11:28;;;;;;;1.30;0.50;;;25.40;78.70;;;;;;4277626;33;20190;-68
2022/06/24 07:13:55;;;;;;;0.50;0.50;;;25.50;78.50;;;;;;4275448;33;21595;-68
2022/06/24 07:16:20;;;;;;;0.55;0.55;;;25.60;78.10;;;;;;4265822;33;20092;-68
2022/06/24 07:18:46;;;;;;;0.98;0.50;;;25.60;77.90;;;;;;4263090;33;20120;-68
2022/06/24 07:21:13;;;;;;;0.40;0.40;;;25.70;77.20;;;;;;4267177;33;20177;-68
2022/06/24 07:23:39;;;;;;;0.40;0.40;;;25.80;77.70;;;;;;4272032;33;20100;-68
2022/06/24 07:26:05;;;;;;;0.65;0.65;;;25.90;77.10;;;;;;4276887;33;20173;-68
2022/06/24 07:28:30;;;;;;;0.40;0.40;;;26.00;76.40;;;;;;4278582;33;20342;-68
2022/06/24 07:30:56;;;;;;;0.30;0.30;;;26.10;76.50;;;;;;4283915;33;20229;-68
2022/06/24 07:33:23;;;;;;;0.55;0.55;;;26.20;75.40;;;;;;4268872;33;20295;-68
2022/06/24 07:35:49;;;;;;;0.22;0.22;;;26.20;75.40;;;;;;4269877;33;20128;-68
2022/06/24 07:38:15;;;;;;;0.55;0.50;;;26.40;75.00;;;;;;4267285;33;20316;-68
2022/06/24 07:40:41;;;;;;;0.32;0.32;;;26.50;73.80;;;;;;4278211;33;20937;-68
2022/06/24 07:43:07;;;;;;;0.40;0.40;;;26.70;72.90;;;;;;4276840;33;20705;-68
2022/06/24 07:45:33;;;;;;;0.40;0.40;;;26.80;72.20;;;;;;4270861;33;20108;-67
2022/06/24 07:47:59;;;;;;;1.67;0.90;;;27.00;72.20;;;;;;4267629;33;20096;-67
2022/06/24 07:50:24;;;;;;;0.47;0.40;;;27.10;71.70;;;;;;4269290;33;20075;-68
2022/06/24 07:52:50;;;;;;;0.37;0.35;;;27.20;71.80;;;;;;4259823;33;21225;-67
2022/06/24 07:57:15;;;;;;;0.30;0.30;;;27.40;70.50;;;;;;4269066;33;20162;-67
2022/06/24 07:58:01;;;;;;;2.62;0.47;;;27.50;69.60;;;;;;4269251;33;20509;-67
2022/06/24 08:00:26;;;;;;;3.40;1.17;;;27.60;70.20;;;;;;4267392;33;20156;-67
2022/06/24 08:02:52;;;;;;;2.12;0.93;;;27.70;69.80;;;;;;4259752;33;20183;-67
2022/06/24 08:05:17;;;;;;;0.10;0.10;;;27.70;69.00;;;;;;4250027;33;20178;-67
2022/06/24 08:07:44;;;;;;;0.85;0.47;;;27.80;68.80;;;;;;4266467;33;20179;-67
2022/06/24 08:10:10;;;;;;;0.30;0.30;;;28.00;68.80;;;;;;4272265;33;20121;-67
2022/06/24 08:12:36;;;;;;;0.28;0.28;;;28.00;68.30;;;;;;4276468;33;20166;-67
2022/06/24 08:15:01;;;;;;;0.20;0.20;;;27.90;68.00;;;;;;4284743;33;20084;-67
2022/06/24 08:17:27;;;;;;;0.60;0.60;;;27.90;68.20;;;;;;4276357;33;20848;-68
2022/06/24 08:19:53;;;;;;;0.25;0.25;;;27.90;67.80;;;;;;4268902;33;20712;-67
2022/06/24 08:22:20;;;;;;;0.20;0.20;;;27.90;68.80;;;;;;4271237;33;20860;-67
2022/06/24 08:24:46;;;;;;;0.40;0.40;;;28.10;68.00;;;;;;4277206;33;20195;-67
2022/06/24 08:27:12;;;;;;;0.80;0.80;;;28.10;68.50;;;;;;4282900;33;20542;-67
2022/06/24 08:29:38;;;;;;;0.13;0.13;;;28.30;67.40;;;;;;4276305;33;20256;-67
2022/06/24 08:32:04;;;;;;;0.32;0.32;;;28.40;67.30;;;;;;4264290;33;20339;-67
2022/06/24 08:34:29;;;;;;;0.47;0.43;;;28.50;66.60;;;;;;4220833;33;20112;-67
2022/06/24 08:36:55;;;;;;;0.20;0.20;;;28.50;65.80;;;;;;4263004;33;20269;-67
2022/06/24 08:39:20;;;;;;;0.20;0.20;;;28.50;66.20;;;;;;4259854;33;20320;-67
2022/06/24 08:41:48;;;;;;;1.08;0.28;;;28.50;66.50;;;;;;4277214;33;20657;-67
2022/06/24 08:44:13;;;;;;;0.37;0.37;;;28.40;66.00;;;;;;4275025;33;20104;-67
2022/06/24 08:46:40;;;;;;;0.43;0.43;;;28.50;67.00;;;;;;4272324;33;20091;-67
2022/06/24 08:49:06;;;;;;;0.40;0.40;;;28.70;67.00;;;;;;4265748;33;20417;-67
2022/06/24 08:51:33;;;;;;;0.45;0.45;;;28.70;66.00;;;;;;4269776;33;20457;-67
2022/06/24 08:54:01;;;;;;;0.25;0.25;;;28.80;65.80;;;;;;4265092;33;20471;-67
2022/06/24 08:56:27;;;;;;;0.25;0.25;;;28.80;65.50;;;;;;4281728;33;20088;-68
2022/06/24 08:58:54;;;;;;;0.65;0.60;;;28.80;65.90;;;;;;4278979;33;20107;-67
2022/06/24 09:01:20;;;;;;;0.82;0.60;;;28.70;65.70;;;;;;4269411;33;20115;-67
2022/06/24 09:03:46;;;;;;;0.28;0.28;;;28.70;65.80;;;;;;4248199;33;20701;-67
2022/06/24 09:06:14;;;;;;;5.53;1.15;;;28.80;66.20;;;;;;4263780;33;20352;-67
2022/06/24 09:08:40;;;;;;;0.30;0.30;;;28.80;64.90;;;;;;4275588;33;20175;-67
2022/06/24 09:11:07;;;;;;;0.47;0.40;;;28.90;65.50;;;;;;4275969;33;20108;-67
2022/06/24 09:13:42;;;;;;;0.40;0.40;;;29.00;67.40;;;;;;4276512;33;20139;-67
2022/06/24 09:16:08;;;;;;;0.43;0.40;;;29.20;66.20;;;;;;4277956;33;20175;-67
2022/06/24 09:18:34;;;;;;;1.05;0.52;;;29.20;65.70;;;;;;4268196;33;20194;-68
2022/06/24 09:20:59;;;;;;;0.47;0.47;;;29.10;65.50;;;;;;4276071;33;20460;-67
2022/06/24 09:23:25;;;;;;;0.30;0.20;;;29.20;65.60;;;;;;4275883;33;20079;-69
2022/06/24 09:25:53;;;;;;;0.40;0.40;;;29.20;65.70;;;;;;4281887;33;20109;-68
2022/06/24 09:28:25;;;;;;;0.20;0.20;;;29.30;65.80;;;;;;4281360;33;20322;-68
2022/06/24 09:31:00;;;;;;;0.37;0.32;;;29.40;65.50;;;;;;4279872;33;20272;-67
2022/06/24 09:33:26;;;;;;;0.20;0.20;;;29.50;64.50;;;;;;4259117;33;21211;-68
2022/06/24 09:36:09;;;;;;;0.37;0.37;;;29.50;65.40;;;;;;4262115;33;20203;-68
2022/06/24 09:38:57;;;;;;;0.20;0.20;;;29.70;64.60;;;;;;4279613;33;20552;-68
2022/06/24 09:41:23;;;;;;;0.35;0.35;;;29.70;64.80;;;;;;4272343;33;20088;-68
2022/06/24 09:43:51;;;;;;;0.22;0.22;;;29.60;64.30;;;;;;4279254;33;20112;-68
2022/06/24 09:46:19;;;;;;;0.28;0.28;;;29.60;65.30;;;;;;4270984;33;20104;-68
2022/06/24 09:48:45;;;;;;;0.47;0.40;;;29.70;63.60;;;;;;4261672;33;20323;-68
2022/06/24 09:51:11;;;;;;;0.30;0.30;;;29.90;64.60;;;;;;4261438;33;20699;-68
2022/06/24 09:53:40;;;;;;;0.52;0.30;;;30.00;62.30;;;;;;4259797;33;20108;-68
2022/06/24 09:56:07;;;;;;;0.20;0.20;;;30.00;61.80;;;;;;4274540;33;20113;-68
2022/06/24 09:58:35;;;;;;;0.20;0.20;;;30.10;63.40;;;;;;4278163;33;20240;-68
2022/06/24 10:01:01;;;;;;;0.65;0.57;;;30.30;62.40;;;;;;4281614;33;20085;-68
2022/06/24 10:03:27;;;;;;;0.32;0.30;;;30.40;62.30;;;;;;4250286;33;20895;-68
2022/06/24 10:05:56;;;;;;;0.20;0.20;;;30.60;61.40;;;;;;4257220;33;20261;-68
2022/06/24 10:08:23;;;;;;;0.22;0.22;;;30.60;60.70;;;;;;4269243;33;20099;-67
2022/06/24 10:10:52;;;;;;;0.37;0.30;;;30.70;60.40;;;;;;4269534;33;20108;-67
2022/06/24 10:13:26;;;;;;;0.25;0.20;;;30.70;59.90;;;;;;4273565;33;20084;-67
2022/06/24 10:15:54;;;;;;;0.20;0.20;;;30.80;61.10;;;;;;4274207;33;20072;-67
2022/06/24 10:18:23;;;;;;;0.30;0.20;;;30.90;60.00;;;;;;4257442;33;20307;-68
2022/06/24 10:20:50;;;;;;;0.10;0.10;;;31.00;60.20;;;;;;4266607;33;20092;-67
2022/06/24 10:23:37;;;;;;;0.35;0.35;;;31.20;59.90;;;;;;4262337;33;20489;-68
2022/06/24 10:26:31;;;;;;;0.70;0.70;;;31.50;58.40;;;;;;4268381;33;20283;-68
2022/06/24 10:29:03;;;;;;;0.10;0.10;;;31.50;58.20;;;;;;4258269;33;20072;-68
2022/06/24 10:31:49;;;;;;;0.32;0.30;;;31.70;58.20;;;;;;4251467;33;20467;-67
2022/06/24 10:34:25;;;;;;;0.93;0.65;;;31.80;57.80;;;;;;4216983;33;20891;-69
2022/06/24 10:36:54;;;;;;;0.35;0.30;;;31.70;56.80;;;;;;4245775;33;20317;-69
2022/06/24 10:39:24;;;;;;;0.20;0.20;;;32.00;58.10;;;;;;4257520;33;20349;-69
2022/06/24 10:42:08;;;;;;;0.10;0.10;;;31.90;58.10;;;;;;4271703;33;20132;-67
2022/06/24 10:44:35;;;;;;;0.30;0.30;;;32.10;59.00;;;;;;4277751;33;20209;-69
2022/06/24 10:47:10;;;;;;;0.17;0.17;;;32.30;57.30;;;;;;4277209;33;20224;-69
2022/06/24 10:49:54;;;;;;;2.08;1.00;;;32.30;57.20;;;;;;4264330;33;20402;-69
2022/06/24 10:52:55;;;;;;;0.10;0.10;;;32.70;57.20;;;;;;4264076;33;20355;-69
2022/06/24 10:55:28;;;;;;;2.00;0.55;;;32.80;56.10;;;;;;4276391;33;20118;-67
2022/06/24 10:57:56;;;;;;;0.65;0.30;;;32.50;55.40;;;;;;4279416;33;20080;-69
2022/06/24 11:00:26;;;;;;;0.30;0.30;;;32.70;55.80;;;;;;4268406;33;20164;-69
2022/06/24 11:03:09;;;;;;;0.20;0.20;;;32.70;57.40;;;;;;4254190;33;20080;-67
2022/06/24 11:05:37;;;;;;;0.30;0.30;;;33.20;55.00;;;;;;4245302;33;20092;-67
2022/06/24 11:08:13;;;;;;;0.30;0.30;;;33.30;55.20;;;;;;4262805;33;20064;-69
2022/06/24 11:10:39;;;;;;;0.10;0.10;;;33.40;55.90;;;;;;4282200;33;20598;-67
2022/06/24 11:13:05;;;;;;;0.20;0.20;;;33.70;54.50;;;;;;4286605;33;20144;-67
2022/06/24 11:15:35;;;;;;;0.20;0.20;;;33.80;53.90;;;;;;4286040;33;20628;-67
2022/06/24 11:18:10;;;;;;;1.33;0.35;;;33.90;54.60;;;;;;4271652;33;21065;-68
2022/06/24 11:20:38;;;;;;;0.40;0.40;;;34.30;55.00;;;;;;4273180;33;20178;-67
2022/06/24 11:23:09;;;;;;;0.10;0.10;;;34.80;52.50;;;;;;4270045;33;20379;-67
2022/06/24 11:25:35;;;;;;;1.02;0.50;;;34.80;51.10;;;;;;4280928;33;20558;-67
2022/06/24 11:28:02;;;;;;;0.30;0.30;;;34.60;52.40;;;;;;4284392;33;20214;-67
2022/06/24 11:30:27;;;;;;;0.30;0.30;;;34.30;52.90;;;;;;4277003;33;20137;-67
2022/06/24 11:32:55;;;;;;;0.20;0.20;;;33.90;53.40;;;;;;4251251;33;20506;-67
2022/06/24 11:35:22;;;;;;;0.93;0.45;;;33.60;53.50;;;;;;4241150;33;20477;-67
2022/06/24 11:37:48;;;;;;;0.43;0.43;;;33.70;52.30;;;;;;4263466;33;20098;-67
2022/06/24 11:40:23;;;;;;;0.20;0.20;;;33.70;51.50;;;;;;4282400;33;20179;-68
2022/06/24 11:42:48;;;;;;;13.75;2.28;;;33.90;51.80;;;;;;4288071;33;20390;-68
2022/06/24 11:45:14;;;;;;;0.10;0.10;;;34.30;52.60;;;;;;4280349;33;20235;-67
2022/06/24 11:47:39;;;;;;;0.13;0.13;;;34.30;50.80;;;;;;4279595;33;20142;-67
2022/06/24 11:50:05;;;;;;;0.10;0.10;;;34.20;50.30;;;;;;4267507;33;20902;-68
2022/06/24 11:52:48;;;;;;;0.20;0.20;;;34.00;50.80;;;;;;4270986;33;20332;-67
2022/06/24 11:55:33;;;;;;;0.10;0.10;;;34.00;50.30;;;;;;4274174;33;20073;-67
2022/06/24 11:58:01;;;;;;;0.10;0.10;;;33.90;51.90;;;;;;4281385;33;20501;-67
2022/06/24 12:00:32;;;;;;;0.15;0.15;;;34.00;51.00;;;;;;4269715;33;20103;-67
2022/06/24 12:02:58;;;;;;;6.32;1.70;;;33.70;51.10;;;;;;4253975;33;20141;-67
2022/06/24 12:05:28;;;;;;;0.13;0.13;;;33.70;52.50;;;;;;4242138;33;20360;-67
2022/06/24 12:07:55;;;;;;;0.13;0.13;;;33.90;53.40;;;;;;4263712;33;20235;-69
2022/06/24 12:10:20;;;;;;;3.62;1.00;;;34.10;51.90;;;;;;4284905;33;20897;-67
2022/06/24 12:12:56;;;;;;;0.32;0.32;;;34.40;52.00;;;;;;4286654;33;20301;-67
2022/06/24 12:15:27;;;;;;;0.32;0.32;;;34.80;50.70;;;;;;4285621;33;20397;-67
2022/06/24 12:17:54;;;;;;;0.95;0.57;;;35.10;50.90;;;;;;4276852;33;20405;-67
2022/06/24 12:20:24;;;;;;;0.40;0.40;;;35.20;50.30;;;;;;4270594;33;20080;-67
2022/06/24 12:23:09;;;;;;;;;;;35.50;50.80;;;;;;4266740;33;20776;-68
2022/06/24 12:25:44;;;;;;;0.15;0.15;;;35.90;49.40;;;;;;4278019;33;19948;-68
2022/06/24 12:28:24;;;;;;;0.32;0.20;;;36.40;49.10;;;;;;4281563;33;20522;-68
2022/06/24 12:31:07;;;;;;;0.20;0.20;;;36.40;48.20;;;;;;4276028;33;20626;-67
2022/06/24 12:33:47;;;;;;;5.40;0.93;;;36.20;48.00;;;;;;4237183;33;20758;-68
2022/06/24 12:36:15;;;;;;;0.30;0.30;;;36.10;48.30;;;;;;4254258;33;20083;-67
2022/06/24 12:38:58;;;;;;;0.37;0.37;;;36.30;47.20;;;;;;4271268;33;20216;-68
2022/06/24 12:41:24;;;;;;;0.15;0.15;;;36.60;46.60;;;;;;4285744;33;20545;-68
2022/06/24 12:43:52;;;;;;;0.10;0.10;;;36.90;45.50;;;;;;4287335;33;20185;-67
2022/06/24 12:46:19;;;;;;;0.88;0.40;;;36.70;45.60;;;;;;4285334;33;20056;-67
2022/06/24 12:50:45;;;;;;;0.20;0.20;;;36.60;45.60;;;;;;4271676;33;20596;-67
2022/06/24 12:51:31;;;;;;;0.17;0.17;;;36.10;46.20;;;;;;4272593;33;20108;-67
2022/06/24 12:53:58;;;;;;;0.32;0.32;;;36.40;46.40;;;;;;4269877;33;20809;-67